sensor_id;sensor_type;location;lat;lon;timestamp;P1;durP1;ratioP1;P2;durP2;ratioP2
55063;SDS011;40963;52.168;21.296;2023-06-10T00:01:57;9.43;;;7.07;;
55063;SDS011;40963;52.168;21.296;2023-06-10T00:04:24;8.43;;;6.45;;
55063;SDS011;40963;52.168;21.296;2023-06-10T00:06:50;14.43;;;7.15;;
55063;SDS011;40963;52.168;21.296;2023-06-10T00:09:16;9.95;;;6.88;;
55063;SDS011;40963;52.168;21.296;2023-06-10T00:11:43;10.65;;;6.90;;
55063;SDS011;40963;52.168;21.296;2023-06-10T00:14:09;9.77;;;7.13;;
55063;SDS011;40963;52.168;21.296;2023-06-10T00:16:35;12.23;;;7.78;;
55063;SDS011;40963;52.168;21.296;2023-06-10T00:19:01;11.05;;;7.47;;
55063;SDS011;40963;52.168;21.296;2023-06-10T00:21:28;9.77;;;7.95;;
55063;SDS011;40963;52.168;21.296;2023-06-10T00:23:55;12.10;;;7.68;;
55063;SDS011;40963;52.168;21.296;2023-06-10T00:26:21;10.30;;;7.47;;
55063;SDS011;40963;52.168;21.296;2023-06-10T00:28:47;10.93;;;7.93;;
55063;SDS011;40963;52.168;21.296;2023-06-10T00:31:13;13.30;;;8.85;;
55063;SDS011;40963;52.168;21.296;2023-06-10T00:33:39;11.98;;;7.78;;
55063;SDS011;40963;52.168;21.296;2023-06-10T00:36:05;15.82;;;8.70;;
55063;SDS011;40963;52.168;21.296;2023-06-10T00:38:30;12.57;;;8.25;;
55063;SDS011;40963;52.168;21.296;2023-06-10T00:40:56;15.30;;;8.95;;
55063;SDS011;40963;52.168;21.296;2023-06-10T00:43:22;16.10;;;9.13;;
55063;SDS011;40963;52.168;21.296;2023-06-10T00:45:48;12.82;;;8.70;;
55063;SDS011;40963;52.168;21.296;2023-06-10T00:48:15;17.30;;;7.97;;
55063;SDS011;40963;52.168;21.296;2023-06-10T00:50:40;10.82;;;8.45;;
55063;SDS011;40963;52.168;21.296;2023-06-10T00:53:09;11.02;;;8.23;;
55063;SDS011;40963;52.168;21.296;2023-06-10T00:55:35;10.95;;;8.07;;
55063;SDS011;40963;52.168;21.296;2023-06-10T00:58:02;19.65;;;8.15;;
55063;SDS011;40963;52.168;21.296;2023-06-10T01:00:28;12.13;;;7.82;;
55063;SDS011;40963;52.168;21.296;2023-06-10T01:02:54;12.85;;;8.02;;
55063;SDS011;40963;52.168;21.296;2023-06-10T01:05:20;12.25;;;8.65;;
55063;SDS011;40963;52.168;21.296;2023-06-10T01:10:29;11.35;;;7.13;;
55063;SDS011;40963;52.168;21.296;2023-06-10T01:12:59;8.73;;;6.80;;
55063;SDS011;40963;52.168;21.296;2023-06-10T01:15:32;14.88;;;7.70;;
55063;SDS011;40963;52.168;21.296;2023-06-10T01:18:03;11.13;;;7.55;;
55063;SDS011;40963;52.168;21.296;2023-06-10T01:20:33;16.20;;;7.38;;
55063;SDS011;40963;52.168;21.296;2023-06-10T01:23:01;9.82;;;7.38;;
55063;SDS011;40963;52.168;21.296;2023-06-10T01:25:28;10.27;;;7.03;;
55063;SDS011;40963;52.168;21.296;2023-06-10T01:28:02;11.55;;;7.40;;
55063;SDS011;40963;52.168;21.296;2023-06-10T01:31:27;11.75;;;7.03;;
55063;SDS011;40963;52.168;21.296;2023-06-10T01:33:43;12.90;;;6.93;;
55063;SDS011;40963;52.168;21.296;2023-06-10T01:36:13;8.35;;;6.38;;
55063;SDS011;40963;52.168;21.296;2023-06-10T01:38:44;10.43;;;7.43;;
55063;SDS011;40963;52.168;21.296;2023-06-10T01:41:15;12.40;;;6.85;;
55063;SDS011;40963;52.168;21.296;2023-06-10T01:43:42;9.88;;;6.97;;
55063;SDS011;40963;52.168;21.296;2023-06-10T01:46:08;12.82;;;7.20;;
55063;SDS011;40963;52.168;21.296;2023-06-10T01:48:34;19.23;;;6.78;;
55063;SDS011;40963;52.168;21.296;2023-06-10T01:51:00;8.40;;;6.43;;
55063;SDS011;40963;52.168;21.296;2023-06-10T01:53:26;10.82;;;7.38;;
55063;SDS011;40963;52.168;21.296;2023-06-10T01:55:51;10.45;;;7.30;;
55063;SDS011;40963;52.168;21.296;2023-06-10T01:58:17;9.02;;;6.55;;
55063;SDS011;40963;52.168;21.296;2023-06-10T02:00:42;13.57;;;7.30;;
55063;SDS011;40963;52.168;21.296;2023-06-10T02:03:08;16.48;;;6.75;;
55063;SDS011;40963;52.168;21.296;2023-06-10T02:05:34;9.68;;;7.10;;
55063;SDS011;40963;52.168;21.296;2023-06-10T02:07:59;9.57;;;6.50;;
55063;SDS011;40963;52.168;21.296;2023-06-10T02:10:25;7.95;;;6.00;;
55063;SDS011;40963;52.168;21.296;2023-06-10T02:12:51;11.30;;;6.40;;
55063;SDS011;40963;52.168;21.296;2023-06-10T02:15:17;11.07;;;6.07;;
55063;SDS011;40963;52.168;21.296;2023-06-10T02:17:42;11.15;;;5.85;;
55063;SDS011;40963;52.168;21.296;2023-06-10T02:20:09;15.27;;;6.75;;
55063;SDS011;40963;52.168;21.296;2023-06-10T02:22:35;16.55;;;5.47;;
55063;SDS011;40963;52.168;21.296;2023-06-10T02:25:02;10.07;;;6.45;;
55063;SDS011;40963;52.168;21.296;2023-06-10T02:27:29;9.45;;;5.78;;
55063;SDS011;40963;52.168;21.296;2023-06-10T02:29:55;9.43;;;5.03;;
55063;SDS011;40963;52.168;21.296;2023-06-10T02:32:21;8.50;;;6.03;;
55063;SDS011;40963;52.168;21.296;2023-06-10T02:34:47;8.77;;;5.80;;
55063;SDS011;40963;52.168;21.296;2023-06-10T02:37:14;10.27;;;5.55;;
55063;SDS011;40963;52.168;21.296;2023-06-10T02:39:40;7.50;;;5.10;;
55063;SDS011;40963;52.168;21.296;2023-06-10T02:42:06;8.60;;;5.45;;
55063;SDS011;40963;52.168;21.296;2023-06-10T02:44:32;7.78;;;4.78;;
55063;SDS011;40963;52.168;21.296;2023-06-10T02:46:58;6.72;;;4.93;;
55063;SDS011;40963;52.168;21.296;2023-06-10T02:49:23;11.73;;;4.28;;
55063;SDS011;40963;52.168;21.296;2023-06-10T02:51:50;12.95;;;4.93;;
55063;SDS011;40963;52.168;21.296;2023-06-10T02:54:18;8.15;;;4.70;;
55063;SDS011;40963;52.168;21.296;2023-06-10T02:56:44;9.30;;;5.00;;
55063;SDS011;40963;52.168;21.296;2023-06-10T02:59:10;8.18;;;4.45;;
55063;SDS011;40963;52.168;21.296;2023-06-10T03:01:36;5.03;;;4.18;;
55063;SDS011;40963;52.168;21.296;2023-06-10T03:04:03;8.48;;;4.32;;
55063;SDS011;40963;52.168;21.296;2023-06-10T03:06:30;9.02;;;4.40;;
55063;SDS011;40963;52.168;21.296;2023-06-10T03:08:55;11.32;;;4.25;;
55063;SDS011;40963;52.168;21.296;2023-06-10T03:11:21;8.00;;;4.60;;
55063;SDS011;40963;52.168;21.296;2023-06-10T03:13:47;11.15;;;4.43;;
55063;SDS011;40963;52.168;21.296;2023-06-10T03:16:13;8.43;;;4.63;;
55063;SDS011;40963;52.168;21.296;2023-06-10T03:18:38;9.23;;;4.78;;
55063;SDS011;40963;52.168;21.296;2023-06-10T03:21:04;8.18;;;4.30;;
55063;SDS011;40963;52.168;21.296;2023-06-10T03:23:30;9.32;;;4.45;;
55063;SDS011;40963;52.168;21.296;2023-06-10T03:25:56;9.02;;;4.53;;
55063;SDS011;40963;52.168;21.296;2023-06-10T03:28:21;5.88;;;4.10;;
55063;SDS011;40963;52.168;21.296;2023-06-10T03:30:47;9.70;;;4.30;;
55063;SDS011;40963;52.168;21.296;2023-06-10T03:33:13;5.65;;;4.30;;
55063;SDS011;40963;52.168;21.296;2023-06-10T03:35:39;8.70;;;4.63;;
55063;SDS011;40963;52.168;21.296;2023-06-10T03:38:05;4.97;;;3.83;;
55063;SDS011;40963;52.168;21.296;2023-06-10T03:40:31;9.45;;;4.35;;
55063;SDS011;40963;52.168;21.296;2023-06-10T03:42:57;8.95;;;3.90;;
55063;SDS011;40963;52.168;21.296;2023-06-10T03:45:23;8.15;;;4.07;;
55063;SDS011;40963;52.168;21.296;2023-06-10T03:47:49;9.00;;;3.92;;
55063;SDS011;40963;52.168;21.296;2023-06-10T03:50:15;8.02;;;4.22;;
55063;SDS011;40963;52.168;21.296;2023-06-10T03:52:41;10.02;;;3.60;;
55063;SDS011;40963;52.168;21.296;2023-06-10T03:55:07;13.20;;;3.88;;
55063;SDS011;40963;52.168;21.296;2023-06-10T03:57:33;6.68;;;3.83;;
55063;SDS011;40963;52.168;21.296;2023-06-10T03:59:58;4.68;;;3.63;;
55063;SDS011;40963;52.168;21.296;2023-06-10T04:02:24;10.10;;;3.70;;
55063;SDS011;40963;52.168;21.296;2023-06-10T04:04:50;9.55;;;3.92;;
55063;SDS011;40963;52.168;21.296;2023-06-10T04:07:16;5.55;;;3.97;;
55063;SDS011;40963;52.168;21.296;2023-06-10T04:09:43;11.68;;;3.65;;
55063;SDS011;40963;52.168;21.296;2023-06-10T04:12:09;7.78;;;3.67;;
55063;SDS011;40963;52.168;21.296;2023-06-10T04:14:35;7.93;;;3.97;;
55063;SDS011;40963;52.168;21.296;2023-06-10T04:17:02;5.72;;;3.63;;
55063;SDS011;40963;52.168;21.296;2023-06-10T04:19:31;8.05;;;3.97;;
55063;SDS011;40963;52.168;21.296;2023-06-10T04:21:57;6.63;;;3.72;;
55063;SDS011;40963;52.168;21.296;2023-06-10T04:24:25;5.07;;;3.80;;
55063;SDS011;40963;52.168;21.296;2023-06-10T04:26:51;5.68;;;3.90;;
55063;SDS011;40963;52.168;21.296;2023-06-10T04:29:16;9.90;;;4.25;;
55063;SDS011;40963;52.168;21.296;2023-06-10T04:31:42;6.05;;;3.38;;
55063;SDS011;40963;52.168;21.296;2023-06-10T04:34:08;6.60;;;3.67;;
55063;SDS011;40963;52.168;21.296;2023-06-10T04:36:33;9.30;;;3.92;;
55063;SDS011;40963;52.168;21.296;2023-06-10T04:38:59;5.85;;;3.35;;
55063;SDS011;40963;52.168;21.296;2023-06-10T04:41:24;4.88;;;3.50;;
55063;SDS011;40963;52.168;21.296;2023-06-10T04:43:52;5.78;;;3.90;;
55063;SDS011;40963;52.168;21.296;2023-06-10T04:46:18;5.05;;;3.22;;
55063;SDS011;40963;52.168;21.296;2023-06-10T04:48:44;12.68;;;3.38;;
55063;SDS011;40963;52.168;21.296;2023-06-10T04:51:11;7.30;;;3.70;;
55063;SDS011;40963;52.168;21.296;2023-06-10T04:53:38;8.15;;;3.53;;
55063;SDS011;40963;52.168;21.296;2023-06-10T04:56:04;6.72;;;3.92;;
55063;SDS011;40963;52.168;21.296;2023-06-10T04:58:29;8.43;;;3.70;;
55063;SDS011;40963;52.168;21.296;2023-06-10T05:00:55;7.88;;;3.60;;
55063;SDS011;40963;52.168;21.296;2023-06-10T05:03:21;13.02;;;4.13;;
55063;SDS011;40963;52.168;21.296;2023-06-10T05:05:46;13.07;;;4.65;;
55063;SDS011;40963;52.168;21.296;2023-06-10T05:08:12;6.45;;;4.30;;
55063;SDS011;40963;52.168;21.296;2023-06-10T05:10:37;3.60;;;2.88;;
55063;SDS011;40963;52.168;21.296;2023-06-10T05:13:03;10.88;;;3.65;;
55063;SDS011;40963;52.168;21.296;2023-06-10T05:15:29;7.18;;;3.67;;
55063;SDS011;40963;52.168;21.296;2023-06-10T05:17:56;12.70;;;3.63;;
55063;SDS011;40963;52.168;21.296;2023-06-10T05:20:23;7.65;;;3.88;;
55063;SDS011;40963;52.168;21.296;2023-06-10T05:22:50;7.35;;;3.58;;
55063;SDS011;40963;52.168;21.296;2023-06-10T05:25:15;4.35;;;3.75;;
55063;SDS011;40963;52.168;21.296;2023-06-10T05:27:41;6.88;;;3.80;;
55063;SDS011;40963;52.168;21.296;2023-06-10T05:30:08;13.93;;;3.70;;
55063;SDS011;40963;52.168;21.296;2023-06-10T05:32:35;8.50;;;4.13;;
55063;SDS011;40963;52.168;21.296;2023-06-10T05:35:01;9.05;;;3.53;;
55063;SDS011;40963;52.168;21.296;2023-06-10T05:37:28;7.28;;;3.60;;
55063;SDS011;40963;52.168;21.296;2023-06-10T05:39:54;4.57;;;2.95;;
55063;SDS011;40963;52.168;21.296;2023-06-10T05:42:20;4.57;;;3.47;;
55063;SDS011;40963;52.168;21.296;2023-06-10T05:44:45;6.57;;;3.70;;
55063;SDS011;40963;52.168;21.296;2023-06-10T05:47:11;11.23;;;4.25;;
55063;SDS011;40963;52.168;21.296;2023-06-10T05:49:36;5.82;;;3.75;;
55063;SDS011;40963;52.168;21.296;2023-06-10T05:52:02;7.93;;;3.80;;
55063;SDS011;40963;52.168;21.296;2023-06-10T05:54:28;9.95;;;3.67;;
55063;SDS011;40963;52.168;21.296;2023-06-10T05:56:53;4.22;;;3.60;;
55063;SDS011;40963;52.168;21.296;2023-06-10T05:59:19;9.15;;;4.00;;
55063;SDS011;40963;52.168;21.296;2023-06-10T06:01:45;7.18;;;3.40;;
55063;SDS011;40963;52.168;21.296;2023-06-10T06:04:10;8.25;;;3.33;;
55063;SDS011;40963;52.168;21.296;2023-06-10T06:06:38;7.60;;;3.97;;
55063;SDS011;40963;52.168;21.296;2023-06-10T06:09:03;12.27;;;4.05;;
55063;SDS011;40963;52.168;21.296;2023-06-10T06:11:30;6.38;;;3.65;;
55063;SDS011;40963;52.168;21.296;2023-06-10T06:13:55;6.13;;;3.40;;
55063;SDS011;40963;52.168;21.296;2023-06-10T06:16:21;7.00;;;3.78;;
55063;SDS011;40963;52.168;21.296;2023-06-10T06:18:47;9.05;;;3.42;;
55063;SDS011;40963;52.168;21.296;2023-06-10T06:21:12;7.35;;;3.75;;
55063;SDS011;40963;52.168;21.296;2023-06-10T06:23:38;6.07;;;3.45;;
55063;SDS011;40963;52.168;21.296;2023-06-10T06:26:03;7.13;;;3.65;;
55063;SDS011;40963;52.168;21.296;2023-06-10T06:28:29;6.38;;;3.85;;
55063;SDS011;40963;52.168;21.296;2023-06-10T06:30:56;8.77;;;4.53;;
55063;SDS011;40963;52.168;21.296;2023-06-10T06:33:21;10.15;;;3.47;;
55063;SDS011;40963;52.168;21.296;2023-06-10T06:35:47;4.72;;;3.72;;
55063;SDS011;40963;52.168;21.296;2023-06-10T06:38:13;7.93;;;3.90;;
55063;SDS011;40963;52.168;21.296;2023-06-10T06:40:39;6.95;;;3.70;;
55063;SDS011;40963;52.168;21.296;2023-06-10T06:43:04;6.40;;;3.88;;
55063;SDS011;40963;52.168;21.296;2023-06-10T06:45:30;5.70;;;3.45;;
55063;SDS011;40963;52.168;21.296;2023-06-10T06:47:56;13.25;;;4.38;;
55063;SDS011;40963;52.168;21.296;2023-06-10T06:50:22;5.78;;;4.20;;
55063;SDS011;40963;52.168;21.296;2023-06-10T06:52:47;7.38;;;4.07;;
55063;SDS011;40963;52.168;21.296;2023-06-10T06:55:13;10.25;;;4.25;;
55063;SDS011;40963;52.168;21.296;2023-06-10T06:57:38;7.00;;;3.92;;
55063;SDS011;40963;52.168;21.296;2023-06-10T07:00:04;23.52;;;4.32;;
55063;SDS011;40963;52.168;21.296;2023-06-10T07:02:30;7.68;;;4.47;;
55063;SDS011;40963;52.168;21.296;2023-06-10T07:04:59;7.97;;;4.68;;
55063;SDS011;40963;52.168;21.296;2023-06-10T07:07:25;7.55;;;3.90;;
55063;SDS011;40963;52.168;21.296;2023-06-10T07:09:51;9.10;;;4.50;;
55063;SDS011;40963;52.168;21.296;2023-06-10T07:12:17;5.68;;;4.20;;
55063;SDS011;40963;52.168;21.296;2023-06-10T07:14:43;6.47;;;4.47;;
55063;SDS011;40963;52.168;21.296;2023-06-10T07:17:09;14.88;;;4.22;;
55063;SDS011;40963;52.168;21.296;2023-06-10T07:19:35;10.07;;;4.10;;
55063;SDS011;40963;52.168;21.296;2023-06-10T07:22:00;13.18;;;4.35;;
55063;SDS011;40963;52.168;21.296;2023-06-10T07:24:26;7.60;;;4.32;;
55063;SDS011;40963;52.168;21.296;2023-06-10T07:26:51;5.53;;;3.80;;
55063;SDS011;40963;52.168;21.296;2023-06-10T07:29:17;7.88;;;4.30;;
55063;SDS011;40963;52.168;21.296;2023-06-10T07:31:43;10.48;;;4.47;;
55063;SDS011;40963;52.168;21.296;2023-06-10T07:34:08;12.32;;;4.68;;
55063;SDS011;40963;52.168;21.296;2023-06-10T07:36:34;5.28;;;4.20;;
55063;SDS011;40963;52.168;21.296;2023-06-10T07:39:00;10.65;;;4.32;;
55063;SDS011;40963;52.168;21.296;2023-06-10T07:41:25;13.48;;;4.85;;
55063;SDS011;40963;52.168;21.296;2023-06-10T07:43:52;6.72;;;4.30;;
55063;SDS011;40963;52.168;21.296;2023-06-10T07:46:22;10.30;;;4.70;;
55063;SDS011;40963;52.168;21.296;2023-06-10T07:48:48;6.88;;;4.10;;
55063;SDS011;40963;52.168;21.296;2023-06-10T07:51:14;14.60;;;4.70;;
55063;SDS011;40963;52.168;21.296;2023-06-10T07:53:40;10.48;;;4.13;;
55063;SDS011;40963;52.168;21.296;2023-06-10T07:56:06;9.95;;;4.57;;
55063;SDS011;40963;52.168;21.296;2023-06-10T07:58:32;4.97;;;4.18;;
55063;SDS011;40963;52.168;21.296;2023-06-10T08:00:57;8.50;;;4.22;;
55063;SDS011;40963;52.168;21.296;2023-06-10T08:03:23;6.72;;;4.35;;
55063;SDS011;40963;52.168;21.296;2023-06-10T08:05:49;8.50;;;4.03;;
55063;SDS011;40963;52.168;21.296;2023-06-10T08:08:14;31.27;;;5.80;;
55063;SDS011;40963;52.168;21.296;2023-06-10T08:10:40;6.80;;;4.05;;
55063;SDS011;40963;52.168;21.296;2023-06-10T08:13:06;12.82;;;4.28;;
55063;SDS011;40963;52.168;21.296;2023-06-10T08:15:32;9.43;;;4.90;;
55063;SDS011;40963;52.168;21.296;2023-06-10T08:17:58;6.13;;;4.10;;
55063;SDS011;40963;52.168;21.296;2023-06-10T08:20:24;8.70;;;4.50;;
55063;SDS011;40963;52.168;21.296;2023-06-10T08:22:50;9.45;;;4.05;;
55063;SDS011;40963;52.168;21.296;2023-06-10T08:25:15;6.20;;;4.57;;
55063;SDS011;40963;52.168;21.296;2023-06-10T08:27:41;6.00;;;4.00;;
55063;SDS011;40963;52.168;21.296;2023-06-10T08:30:07;6.32;;;3.97;;
55063;SDS011;40963;52.168;21.296;2023-06-10T08:32:34;6.53;;;3.80;;
55063;SDS011;40963;52.168;21.296;2023-06-10T08:35:00;7.25;;;4.05;;
55063;SDS011;40963;52.168;21.296;2023-06-10T08:37:25;5.82;;;4.00;;
55063;SDS011;40963;52.168;21.296;2023-06-10T08:39:51;8.10;;;4.22;;
55063;SDS011;40963;52.168;21.296;2023-06-10T08:42:24;5.97;;;4.20;;
55063;SDS011;40963;52.168;21.296;2023-06-10T08:44:58;9.90;;;3.95;;
55063;SDS011;40963;52.168;21.296;2023-06-10T08:47:26;6.88;;;4.15;;
55063;SDS011;40963;52.168;21.296;2023-06-10T08:49:56;5.63;;;3.55;;
55063;SDS011;40963;52.168;21.296;2023-06-10T08:52:28;7.45;;;3.78;;
55063;SDS011;40963;52.168;21.296;2023-06-10T08:54:59;7.90;;;4.40;;
55063;SDS011;40963;52.168;21.296;2023-06-10T08:57:27;8.82;;;4.05;;
55063;SDS011;40963;52.168;21.296;2023-06-10T08:59:56;11.38;;;3.92;;
55063;SDS011;40963;52.168;21.296;2023-06-10T09:02:23;7.00;;;4.10;;
55063;SDS011;40963;52.168;21.296;2023-06-10T09:04:49;5.78;;;3.65;;
55063;SDS011;40963;52.168;21.296;2023-06-10T09:07:15;8.98;;;3.65;;
55063;SDS011;40963;52.168;21.296;2023-06-10T09:09:42;5.65;;;3.90;;
55063;SDS011;40963;52.168;21.296;2023-06-10T09:12:09;8.07;;;3.45;;
55063;SDS011;40963;52.168;21.296;2023-06-10T09:14:35;5.68;;;3.72;;
55063;SDS011;40963;52.168;21.296;2023-06-10T09:17:01;6.85;;;3.35;;
55063;SDS011;40963;52.168;21.296;2023-06-10T09:19:27;8.45;;;3.90;;
55063;SDS011;40963;52.168;21.296;2023-06-10T09:21:54;6.25;;;3.90;;
55063;SDS011;40963;52.168;21.296;2023-06-10T09:24:21;7.95;;;3.92;;
55063;SDS011;40963;52.168;21.296;2023-06-10T09:26:47;5.63;;;3.40;;
55063;SDS011;40963;52.168;21.296;2023-06-10T09:29:13;5.78;;;3.75;;
55063;SDS011;40963;52.168;21.296;2023-06-10T09:31:39;8.98;;;3.70;;
55063;SDS011;40963;52.168;21.296;2023-06-10T09:34:08;6.82;;;3.90;;
55063;SDS011;40963;52.168;21.296;2023-06-10T09:36:38;5.20;;;3.85;;
55063;SDS011;40963;52.168;21.296;2023-06-10T09:39:05;14.18;;;3.90;;
55063;SDS011;40963;52.168;21.296;2023-06-10T09:41:41;7.43;;;3.75;;
55063;SDS011;40963;52.168;21.296;2023-06-10T09:44:13;6.38;;;3.80;;
55063;SDS011;40963;52.168;21.296;2023-06-10T09:46:40;7.97;;;3.65;;
55063;SDS011;40963;52.168;21.296;2023-06-10T09:49:06;7.78;;;4.00;;
55063;SDS011;40963;52.168;21.296;2023-06-10T09:51:32;10.30;;;3.60;;
55063;SDS011;40963;52.168;21.296;2023-06-10T09:53:58;6.50;;;3.53;;
55063;SDS011;40963;52.168;21.296;2023-06-10T09:56:33;6.32;;;3.88;;
55063;SDS011;40963;52.168;21.296;2023-06-10T09:59:00;7.43;;;3.58;;
55063;SDS011;40963;52.168;21.296;2023-06-10T10:01:26;7.28;;;3.50;;
55063;SDS011;40963;52.168;21.296;2023-06-10T10:03:51;7.53;;;4.18;;
55063;SDS011;40963;52.168;21.296;2023-06-10T10:06:18;4.43;;;3.67;;
55063;SDS011;40963;52.168;21.296;2023-06-10T10:08:45;7.25;;;3.90;;
55063;SDS011;40963;52.168;21.296;2023-06-10T10:11:11;6.05;;;3.38;;
55063;SDS011;40963;52.168;21.296;2023-06-10T10:13:38;15.32;;;3.90;;
55063;SDS011;40963;52.168;21.296;2023-06-10T10:16:06;9.18;;;3.88;;
55063;SDS011;40963;52.168;21.296;2023-06-10T10:18:41;9.05;;;4.03;;
55063;SDS011;40963;52.168;21.296;2023-06-10T10:21:13;3.97;;;3.50;;
55063;SDS011;40963;52.168;21.296;2023-06-10T10:26:33;4.72;;;4.00;;
55063;SDS011;40963;52.168;21.296;2023-06-10T10:31:39;11.30;;;4.28;;
55063;SDS011;40963;52.168;21.296;2023-06-10T10:34:12;7.82;;;4.20;;
55063;SDS011;40963;52.168;21.296;2023-06-10T10:36:42;9.32;;;4.05;;
55063;SDS011;40963;52.168;21.296;2023-06-10T10:39:08;13.82;;;4.60;;
55063;SDS011;40963;52.168;21.296;2023-06-10T10:41:34;7.65;;;4.25;;
55063;SDS011;40963;52.168;21.296;2023-06-10T10:44:02;5.32;;;4.22;;
55063;SDS011;40963;52.168;21.296;2023-06-10T10:46:40;9.20;;;4.45;;
55063;SDS011;40963;52.168;21.296;2023-06-10T10:49:14;12.70;;;4.72;;
55063;SDS011;40963;52.168;21.296;2023-06-10T10:51:56;7.65;;;4.95;;
55063;SDS011;40963;52.168;21.296;2023-06-10T10:54:29;7.50;;;4.95;;
55063;SDS011;40963;52.168;21.296;2023-06-10T11:02:17;13.45;;;6.07;;
55063;SDS011;40963;52.168;21.296;2023-06-10T11:04:46;10.48;;;4.97;;
55063;SDS011;40963;52.168;21.296;2023-06-10T11:07:12;6.97;;;4.60;;
55063;SDS011;40963;52.168;21.296;2023-06-10T11:15:17;11.25;;;5.30;;
55063;SDS011;40963;52.168;21.296;2023-06-10T11:23:37;7.95;;;4.68;;
55063;SDS011;40963;52.168;21.296;2023-06-10T11:26:19;9.73;;;4.75;;
55063;SDS011;40963;52.168;21.296;2023-06-10T11:31:18;9.77;;;6.22;;
55063;SDS011;40963;52.168;21.296;2023-06-10T11:33:48;6.10;;;5.22;;
55063;SDS011;40963;52.168;21.296;2023-06-10T11:36:23;7.85;;;5.40;;
55063;SDS011;40963;52.168;21.296;2023-06-10T11:38:50;8.05;;;5.40;;
55063;SDS011;40963;52.168;21.296;2023-06-10T11:41:18;11.35;;;6.75;;
55063;SDS011;40963;52.168;21.296;2023-06-10T11:43:44;7.82;;;5.68;;
55063;SDS011;40963;52.168;21.296;2023-06-10T11:46:10;7.72;;;5.20;;
55063;SDS011;40963;52.168;21.296;2023-06-10T11:48:37;9.15;;;5.45;;
55063;SDS011;40963;52.168;21.296;2023-06-10T11:51:08;9.73;;;4.82;;
55063;SDS011;40963;52.168;21.296;2023-06-10T11:53:34;13.90;;;4.93;;
55063;SDS011;40963;52.168;21.296;2023-06-10T11:56:00;6.70;;;5.18;;
55063;SDS011;40963;52.168;21.296;2023-06-10T11:58:26;10.30;;;5.93;;
55063;SDS011;40963;52.168;21.296;2023-06-10T12:00:52;5.72;;;5.10;;
55063;SDS011;40963;52.168;21.296;2023-06-10T12:03:20;6.43;;;5.50;;
55063;SDS011;40963;52.168;21.296;2023-06-10T12:05:57;12.18;;;5.55;;
55063;SDS011;40963;52.168;21.296;2023-06-10T12:08:23;7.22;;;4.88;;
55063;SDS011;40963;52.168;21.296;2023-06-10T12:10:50;12.52;;;5.40;;
55063;SDS011;40963;52.168;21.296;2023-06-10T12:13:15;8.23;;;5.78;;
55063;SDS011;40963;52.168;21.296;2023-06-10T12:15:43;13.32;;;6.00;;
55063;SDS011;40963;52.168;21.296;2023-06-10T12:18:15;7.68;;;5.53;;
55063;SDS011;40963;52.168;21.296;2023-06-10T12:20:44;5.63;;;5.03;;
55063;SDS011;40963;52.168;21.296;2023-06-10T12:23:10;6.97;;;5.53;;
55063;SDS011;40963;52.168;21.296;2023-06-10T12:25:37;9.93;;;5.45;;
55063;SDS011;40963;52.168;21.296;2023-06-10T12:28:04;9.70;;;4.93;;
55063;SDS011;40963;52.168;21.296;2023-06-10T12:30:30;8.65;;;5.43;;
55063;SDS011;40963;52.168;21.296;2023-06-10T12:32:57;6.72;;;5.32;;
55063;SDS011;40963;52.168;21.296;2023-06-10T12:35:24;11.35;;;5.85;;
55063;SDS011;40963;52.168;21.296;2023-06-10T12:42:56;5.32;;;4.82;;
55063;SDS011;40963;52.168;21.296;2023-06-10T12:45:26;7.50;;;5.50;;
55063;SDS011;40963;52.168;21.296;2023-06-10T12:48:05;6.95;;;5.72;;
55063;SDS011;40963;52.168;21.296;2023-06-10T12:50:36;12.40;;;5.00;;
55063;SDS011;40963;52.168;21.296;2023-06-10T12:53:03;12.63;;;5.88;;
55063;SDS011;40963;52.168;21.296;2023-06-10T12:55:29;8.02;;;5.60;;
55063;SDS011;40963;52.168;21.296;2023-06-10T12:57:54;6.57;;;5.18;;
55063;SDS011;40963;52.168;21.296;2023-06-10T13:00:22;7.20;;;5.63;;
55063;SDS011;40963;52.168;21.296;2023-06-10T13:02:50;7.57;;;5.10;;
55063;SDS011;40963;52.168;21.296;2023-06-10T13:05:17;6.65;;;5.30;;
55063;SDS011;40963;52.168;21.296;2023-06-10T13:07:44;11.25;;;5.40;;
55063;SDS011;40963;52.168;21.296;2023-06-10T13:10:10;12.07;;;5.40;;
55063;SDS011;40963;52.168;21.296;2023-06-10T13:12:35;10.57;;;5.35;;
55063;SDS011;40963;52.168;21.296;2023-06-10T13:15:02;11.13;;;5.88;;
55063;SDS011;40963;52.168;21.296;2023-06-10T13:17:28;7.82;;;5.38;;
55063;SDS011;40963;52.168;21.296;2023-06-10T13:19:54;6.03;;;5.30;;
55063;SDS011;40963;52.168;21.296;2023-06-10T13:22:20;9.38;;;5.32;;
55063;SDS011;40963;52.168;21.296;2023-06-10T13:24:46;6.35;;;5.50;;
55063;SDS011;40963;52.168;21.296;2023-06-10T13:27:12;10.07;;;6.07;;
55063;SDS011;40963;52.168;21.296;2023-06-10T13:29:39;6.97;;;5.30;;
55063;SDS011;40963;52.168;21.296;2023-06-10T13:32:04;7.78;;;5.47;;
55063;SDS011;40963;52.168;21.296;2023-06-10T13:34:31;11.35;;;5.32;;
55063;SDS011;40963;52.168;21.296;2023-06-10T13:36:56;6.38;;;5.22;;
55063;SDS011;40963;52.168;21.296;2023-06-10T13:39:22;8.90;;;5.45;;
55063;SDS011;40963;52.168;21.296;2023-06-10T13:41:48;7.78;;;5.68;;
55063;SDS011;40963;52.168;21.296;2023-06-10T13:44:14;8.40;;;5.30;;
55063;SDS011;40963;52.168;21.296;2023-06-10T13:46:39;11.85;;;5.40;;
55063;SDS011;40963;52.168;21.296;2023-06-10T13:49:05;8.98;;;5.05;;
55063;SDS011;40963;52.168;21.296;2023-06-10T13:51:30;9.40;;;5.22;;
55063;SDS011;40963;52.168;21.296;2023-06-10T13:53:56;6.13;;;4.90;;
55063;SDS011;40963;52.168;21.296;2023-06-10T13:56:22;8.00;;;5.15;;
55063;SDS011;40963;52.168;21.296;2023-06-10T13:58:48;11.43;;;5.22;;
55063;SDS011;40963;52.168;21.296;2023-06-10T14:01:13;7.40;;;5.07;;
55063;SDS011;40963;52.168;21.296;2023-06-10T14:03:39;11.30;;;5.40;;
55063;SDS011;40963;52.168;21.296;2023-06-10T14:06:05;8.32;;;5.20;;
55063;SDS011;40963;52.168;21.296;2023-06-10T14:08:30;7.30;;;5.10;;
55063;SDS011;40963;52.168;21.296;2023-06-10T14:10:56;6.05;;;4.88;;
55063;SDS011;40963;52.168;21.296;2023-06-10T14:13:22;12.18;;;4.95;;
55063;SDS011;40963;52.168;21.296;2023-06-10T14:15:47;9.25;;;5.45;;
55063;SDS011;40963;52.168;21.296;2023-06-10T14:18:13;8.30;;;5.13;;
55063;SDS011;40963;52.168;21.296;2023-06-10T14:20:38;7.95;;;5.10;;
55063;SDS011;40963;52.168;21.296;2023-06-10T14:23:04;7.43;;;5.32;;
55063;SDS011;40963;52.168;21.296;2023-06-10T14:25:29;10.95;;;5.10;;
55063;SDS011;40963;52.168;21.296;2023-06-10T14:27:55;7.82;;;5.00;;
55063;SDS011;40963;52.168;21.296;2023-06-10T14:30:21;10.23;;;5.30;;
55063;SDS011;40963;52.168;21.296;2023-06-10T14:32:46;6.50;;;4.93;;
55063;SDS011;40963;52.168;21.296;2023-06-10T14:35:12;6.60;;;5.10;;
55063;SDS011;40963;52.168;21.296;2023-06-10T14:37:38;7.55;;;5.25;;
55063;SDS011;40963;52.168;21.296;2023-06-10T14:40:04;9.85;;;5.10;;
55063;SDS011;40963;52.168;21.296;2023-06-10T14:42:30;5.78;;;4.65;;
55063;SDS011;40963;52.168;21.296;2023-06-10T14:44:57;9.02;;;5.22;;
55063;SDS011;40963;52.168;21.296;2023-06-10T14:47:23;8.68;;;4.95;;
55063;SDS011;40963;52.168;21.296;2023-06-10T14:49:49;9.48;;;4.60;;
55063;SDS011;40963;52.168;21.296;2023-06-10T14:52:15;11.68;;;5.32;;
55063;SDS011;40963;52.168;21.296;2023-06-10T14:54:41;8.88;;;4.90;;
55063;SDS011;40963;52.168;21.296;2023-06-10T14:57:06;8.82;;;5.20;;
55063;SDS011;40963;52.168;21.296;2023-06-10T14:59:32;7.97;;;4.80;;
55063;SDS011;40963;52.168;21.296;2023-06-10T15:01:59;9.82;;;4.60;;